< < Back
Terminal Aerodrome Forecast


Current Version              Previous Versions:   1  2  3  4  5  6  7  8  9  

Terminal Aerodrome Forecast

206
FTUS42 KGSP 252339
TAFHKY
TAF
KHKY 252339Z 2600/2624 06005KT 1SM BR BKN002 OVC017
     FM260600 02003KT 1/2SM -SHRA FG VCTS BKN005 OVC017CB
     FM261300 00000KT 1SM BR VCSH BKN017
     FM261500 34004KT 3SM BR BKN030
     FM261700 01005KT P6SM BKN035=

Latest METAR

312
SAUS70 KWBC 260100 RRA
MTRHKY
METAR KHKY 260053Z AUTO 06006KT 2SM BR OVC003 10/09 A2964 RMK AO2 SLP025
T01000094


USA.gov is the U.S. government's official web portal to all federal, state and local government web resources and services.